createdAt,value
2019-04-22T00:00:04.707Z,998.46
2019-04-22T00:05:54.840Z,998.37
2019-04-22T00:26:01.478Z,998.2
2019-04-22T00:46:10.717Z,998.06
2019-04-22T00:51:22.314Z,998.06
2019-04-22T00:56:15.571Z,998.04
2019-04-22T01:06:30.436Z,998.02
2019-04-22T01:16:27.898Z,997.87
2019-04-22T01:26:00.386Z,997.77
2019-04-22T01:30:38.032Z,997.66
2019-04-22T01:35:43.257Z,997.61
2019-04-22T01:41:54.244Z,997.56
2019-04-22T01:51:00.606Z,997.48
2019-04-22T02:01:30.124Z,997.46
2019-04-22T02:06:13.428Z,997.44
2019-04-22T02:11:14.045Z,997.45
2019-04-22T02:16:27.173Z,997.41
2019-04-22T02:21:19.986Z,997.27
2019-04-22T02:26:25.178Z,997.28
2019-04-22T02:32:09.709Z,997.24
2019-04-22T02:41:40.670Z,997.12
2019-04-22T02:51:27.585Z,997.05
2019-04-22T02:56:35.739Z,997.06
2019-04-22T03:01:53.000Z,997
2019-04-22T03:06:45.720Z,997
2019-04-22T03:11:24.161Z,996.93
2019-04-22T03:16:25.889Z,996.82
2019-04-22T03:21:23.675Z,996.74
2019-04-22T03:27:58.073Z,996.7
2019-04-22T03:31:57.339Z,996.69
2019-04-22T03:37:42.700Z,996.62
2019-04-22T03:51:35.578Z,996.51
2019-04-22T03:56:18.190Z,996.56
2019-04-22T04:01:29.362Z,996.53
2019-04-22T04:07:10.316Z,996.42
2019-04-22T04:11:06.080Z,996.4
2019-04-22T04:16:10.093Z,996.41
2019-04-22T04:31:40.469Z,996.24
2019-04-22T04:36:28.104Z,996.25
2019-04-22T04:46:35.541Z,996.22
2019-04-22T04:51:32.450Z,996.19
2019-04-22T04:56:10.487Z,996.19
2019-04-22T05:01:44.366Z,996.12
2019-04-22T05:06:21.175Z,996.18
2019-04-22T05:11:34.704Z,996.2
2019-04-22T05:16:32.200Z,996.21
2019-04-22T05:21:21.338Z,996.12
2019-04-22T05:26:09.226Z,996.11
2019-04-22T05:31:00.355Z,996.07
2019-04-22T05:36:06.843Z,996.08
2019-04-22T05:46:22.059Z,996.07
2019-04-22T05:51:00.890Z,996.07
2019-04-22T06:01:56.268Z,996.09
2019-04-22T06:11:16.572Z,996.09
2019-04-22T06:16:01.687Z,996.07
2019-04-22T06:26:50.717Z,996.04
2019-04-22T06:31:10.203Z,996.05
2019-04-22T06:36:23.186Z,996
2019-04-22T06:41:13.237Z,996.04
2019-04-22T06:45:51.187Z,996.05
2019-04-22T06:51:26.792Z,995.98
2019-04-22T06:56:10.838Z,996.03
2019-04-22T07:01:17.407Z,996.06
2019-04-22T07:06:19.199Z,996.04
2019-04-22T07:11:18.022Z,996.02
2019-04-22T07:21:05.798Z,996
2019-04-22T07:26:07.248Z,996
2019-04-22T07:31:15.456Z,995.91
2019-04-22T07:36:22.167Z,995.91
2019-04-22T07:40:55.120Z,995.89
2019-04-22T07:46:06.670Z,995.82
2019-04-22T07:51:26.376Z,995.69
2019-04-22T07:56:11.622Z,995.58
2019-04-22T08:01:01.790Z,995.58
2019-04-22T08:11:21.359Z,995.43
2019-04-22T08:16:02.383Z,995.47
2019-04-22T08:21:08.942Z,995.39
2019-04-22T08:26:27.207Z,995.37
2019-04-22T08:31:13.367Z,995.32
2019-04-22T08:36:25.464Z,995.26
2019-04-22T08:41:16.189Z,995.25
2019-04-22T08:46:32.883Z,995.21
2019-04-22T08:56:23.308Z,995.11
2019-04-22T09:01:11.044Z,995.01
2019-04-22T09:11:34.807Z,994.86
2019-04-22T09:16:10.140Z,994.82
2019-04-22T09:21:12.948Z,994.7
2019-04-22T09:26:08.489Z,994.69
2019-04-22T09:31:23.289Z,994.48
2019-04-22T09:36:22.157Z,994.44
2019-04-22T09:50:51.740Z,994.23
2019-04-22T09:56:09.462Z,994.2
2019-04-22T10:01:02.461Z,994.14
2019-04-22T10:11:03.814Z,993.84
2019-04-22T10:16:36.911Z,993.81
2019-04-22T10:21:39.872Z,993.73
2019-04-22T10:26:21.236Z,993.66
2019-04-22T10:35:18.622Z,993.53
2019-04-22T10:40:11.249Z,993.45
2019-04-22T10:45:01.750Z,993.29
2019-04-22T10:50:02.976Z,993.29
2019-04-22T10:55:03.662Z,993.17
2019-04-22T11:00:03.106Z,993.12
2019-04-22T11:05:02.239Z,993.03
2019-04-22T11:10:36.637Z,992.95
2019-04-22T11:15:01.865Z,992.89
2019-04-22T11:20:03.632Z,992.84
2019-04-22T11:25:03.719Z,992.72
2019-04-22T11:30:04.014Z,992.71
2019-04-22T11:35:01.961Z,992.66
2019-04-22T11:40:31.761Z,992.51
2019-04-22T11:45:01.907Z,992.62
2019-04-22T11:50:03.712Z,992.45
2019-04-22T11:55:02.035Z,992.37
2019-04-22T12:00:03.288Z,992.27
2019-04-22T12:05:03.889Z,992.3
2019-04-22T12:10:35.614Z,992.2
2019-04-22T12:15:01.514Z,992.17
2019-04-22T12:20:10.541Z,992
2019-04-22T12:25:01.475Z,991.94
2019-04-22T12:30:03.219Z,991.94
2019-04-22T12:35:02.055Z,991.85
2019-04-22T12:40:04.160Z,991.84
2019-04-22T12:45:02.708Z,991.7
2019-04-22T12:50:25.943Z,991.64
2019-04-22T12:55:01.869Z,991.6
2019-04-22T13:00:03.771Z,991.46
2019-04-22T13:05:02.017Z,991.24
2019-04-22T13:10:01.780Z,991.23
2019-04-22T13:15:07.910Z,991.16
2019-04-22T13:20:02.852Z,991.03
2019-04-22T13:25:04.094Z,991.09
2019-04-22T13:30:08.135Z,990.98
2019-04-22T13:35:05.614Z,990.98
2019-04-22T13:40:05.413Z,990.93
2019-04-22T13:45:02.186Z,990.77
2019-04-22T13:51:44.812Z,990.76
2019-04-22T13:56:12.164Z,990.6
2019-04-22T14:00:07.988Z,990.53
2019-04-22T14:05:01.806Z,990.47
2019-04-22T14:10:04.116Z,990.33
2019-04-22T14:15:02.533Z,990.31
2019-04-22T14:20:02.864Z,990.25
2019-04-22T14:25:03.127Z,990.17
2019-04-22T14:30:02.257Z,990.12
2019-04-22T14:35:03.272Z,990.04
2019-04-22T14:40:11.577Z,989.94
2019-04-22T14:46:32.903Z,989.94
2019-04-22T14:51:00.221Z,989.87
2019-04-22T14:55:23.649Z,989.8
2019-04-22T15:00:04.384Z,989.76
2019-04-22T15:05:01.742Z,989.67
2019-04-22T15:10:02.333Z,989.57
2019-04-22T15:15:01.917Z,989.49
2019-04-22T15:20:03.978Z,989.53
2019-04-22T15:25:03.193Z,989.48
2019-04-22T15:30:01.590Z,989.44
2019-04-22T15:35:02.191Z,989.41
2019-04-22T15:40:03.061Z,989.32
2019-04-22T15:45:08.379Z,989.29
2019-04-22T15:50:01.907Z,989.27
2019-04-22T15:55:04.928Z,989.23
2019-04-22T16:00:41.371Z,989.1
2019-04-22T16:05:04.650Z,989.08
2019-04-22T16:10:03.901Z,989.14
2019-04-22T16:15:07.429Z,989.03
2019-04-22T16:20:03.728Z,988.95
2019-04-22T16:25:02.700Z,988.94
2019-04-22T16:30:05.122Z,988.91
2019-04-22T16:35:01.708Z,988.91
2019-04-22T16:40:04.805Z,988.84
2019-04-22T16:45:03.518Z,988.76
2019-04-22T16:50:03.890Z,988.74
2019-04-22T16:55:05.456Z,988.69
2019-04-22T17:00:04.620Z,988.71
2019-04-22T17:05:02.320Z,988.72
2019-04-22T17:10:02.184Z,988.64
2019-04-22T17:15:12.231Z,988.68
2019-04-22T17:20:03.289Z,988.63
2019-04-22T17:25:04.508Z,988.59
2019-04-22T17:30:04.150Z,988.6
2019-04-22T17:35:02.437Z,988.61
2019-04-22T17:45:55.642Z,988.64
2019-04-22T17:56:08.077Z,988.62
2019-04-22T18:00:53.498Z,988.66
2019-04-22T18:05:14.881Z,988.6
2019-04-22T18:11:10.119Z,988.63
2019-04-22T18:15:52.803Z,988.72
2019-04-22T18:20:54.760Z,988.64
2019-04-22T18:25:44.355Z,988.72
2019-04-22T18:30:48.127Z,988.7
2019-04-22T18:35:53.721Z,988.72
2019-04-22T18:46:14.174Z,988.79
2019-04-22T18:55:50.254Z,988.85
2019-04-22T19:00:07.125Z,988.88
2019-04-22T19:05:36.781Z,988.93
2019-04-22T19:11:20.160Z,988.94
2019-04-22T19:16:35.747Z,988.97
2019-04-22T19:25:51.018Z,989.07
2019-04-22T19:31:08.728Z,989.13
2019-04-22T19:36:04.783Z,989.16
2019-04-22T19:41:28.916Z,989.16
2019-04-22T19:45:51.635Z,989.18
2019-04-22T19:51:08.740Z,989.12
2019-04-22T19:55:53.612Z,989.16
2019-04-22T20:00:41.594Z,989.19
2019-04-22T20:06:05.421Z,989.14
2019-04-22T20:11:09.772Z,989.13
2019-04-22T20:15:50.481Z,989.12
2019-04-22T20:21:03.531Z,989.08
2019-04-22T20:25:40.538Z,989.04
2019-04-22T20:31:08.034Z,989.04
2019-04-22T20:41:06.805Z,988.89
2019-04-22T20:46:14.762Z,988.75
2019-04-22T20:51:03.650Z,988.78
2019-04-22T20:55:41.751Z,988.72
2019-04-22T21:00:40.142Z,988.78
2019-04-22T21:05:42.623Z,988.71
2019-04-22T21:10:50.457Z,988.81
2019-04-22T21:21:13.283Z,988.83
2019-04-22T21:25:34.579Z,988.8
2019-04-22T21:30:56.674Z,988.83
2019-04-22T21:36:35.028Z,988.77
2019-04-22T21:40:59.367Z,988.75
2019-04-22T21:45:40.904Z,988.67
2019-04-22T21:56:11.045Z,988.75
2019-04-22T22:05:51.323Z,988.61
2019-04-22T22:11:12.951Z,988.54
2019-04-22T22:15:56.150Z,988.5
2019-04-22T22:20:47.386Z,988.52
2019-04-22T22:31:21.759Z,988.41
2019-04-22T22:40:21.513Z,988.4
2019-04-22T22:45:36.932Z,988.3
2019-04-22T22:50:50.574Z,988.27
2019-04-22T22:55:50.530Z,988.3
2019-04-22T23:00:53.434Z,988.22
2019-04-22T23:06:02.677Z,988.15
2019-04-22T23:15:58.039Z,988.11
2019-04-22T23:20:07.351Z,988.03
2019-04-22T23:26:04.456Z,987.87
2019-04-22T23:30:32.084Z,987.85
2019-04-22T23:35:40.934Z,987.83
2019-04-22T23:40:53.695Z,987.76
2019-04-22T23:45:50.027Z,987.72
2019-04-22T23:51:02.706Z,987.66
2019-04-22T23:56:03.809Z,987.55
